Latest Weather Observations for Darwin Airport

IDD60901

Issued at 11:11 am CST Sunday 5 July 2020 (issued every 10 minutes, with the page automatically refreshed every 10 minutes)

About weather observations | Map of Darwin area stations | Latest observations for Darwin area | Other Formats
Station Details ID: 014015 Name: DARWIN AIRPORT Lat: -12.42 Lon: 130.89 Height: 30.4 m
Data from the previous 72 hours. | See also: Recent months at Darwin Airport
Date/Time
CST
Temp
°C
App
Temp
°C
Dew
Point
°C
Rel
Hum
%
Delta-T
°C
Wind Press
QNH
hPa
Press
MSL
hPa
Rain since
9am
mm
Dir  Spd
km/h
Gust
km/h
Spd
kts
Gust
kts
05/11:00am 26.0 20.7 8.6 33 9.4 SE 26 33 14 18 1015.9 1015.7 0.0
05/10:30am 25.1 19.3 8.0 33 9.1 SE 28 37 15 20 1016.3 1016.1 0.0
05/10:00am 24.7 18.6 8.2 35 8.8 SE 30 41 16 22 1016.4 1016.2 0.0
05/09:30am 23.6 19.2 8.9 39 7.9 SE 22 33 12 18 1016.4 1016.2 0.0
05/09:00am 23.0 19.1 9.5 42 7.3 SSE 20 30 11 16 1016.3 1016.1 0.0
05/08:30am 21.7 19.1 10.8 50 6.0 SE 15 20 8 11 1016.0 1015.8 0.0
05/08:00am 20.8 18.6 10.7 52 5.5 SE 13 19 7 10 1015.7 1015.5 0.0
05/07:30am 20.2 18.4 10.9 55 5.1 SE 11 15 6 8 1015.5 1015.3 0.0
05/07:00am 20.6 18.3 10.3 51 5.6 SE 13 17 7 9 1015.2 1015.0 0.0
05/06:30am 21.1 18.8 10.5 50 5.8 ESE 13 19 7 10 1015.0 1014.8 0.0
05/06:00am 21.6 18.5 10.4 49 6.1 ESE 17 22 9 12 1014.8 1014.6 0.0
05/05:30am 22.1 19.1 10.6 48 6.3 ESE 17 20 9 11 1014.5 1014.3 0.0
05/05:00am 22.5 18.1 10.3 46 6.7 E 24 33 13 18 1014.1 1013.9 0.0
05/04:30am 22.8 17.9 10.0 44 7.0 E 26 39 14 21 1013.8 1013.6 0.0
05/04:00am 23.2 18.1 10.5 44 7.0 E 28 37 15 20 1014.2 1014.0 0.0
05/03:30am 23.2 18.0 10.3 44 7.1 E 28 37 15 20 1014.2 1014.0 0.0
05/03:00am 23.2 18.4 10.3 44 7.1 E 26 37 14 20 1014.7 1014.5 0.0
05/02:30am 23.6 19.1 9.9 42 7.5 ESE 24 33 13 18 1014.9 1014.7 0.0
05/02:00am 24.0 18.8 9.0 38 8.1 E 26 32 14 17 1015.1 1014.9 0.0
05/01:30am 24.6 19.5 7.8 34 8.9 ESE 24 32 13 17 1015.2 1015.0 0.0
05/01:00am 24.9 20.5 7.2 32 9.3 ESE 20 28 11 15 1015.2 1015.0 0.0
05/12:30am 25.1 20.5 6.7 30 9.6 ESE 20 30 11 16 1015.3 1015.1 0.0
05/12:00am 24.8 20.8 6.7 31 9.4 SE 17 20 9 11 1015.4 1015.2 0.0
 
Date/Time
CST
Temp
°C
App
Temp
°C
Dew
Point
°C
Rel
Hum
%
Delta-T
°C
Wind Press
QNH
hPa
Press
MSL
hPa
Rain since
9am
mm
Dir  Spd
km/h
Gust
km/h
Spd
kts
Gust
kts
04/11:30pm 24.3 21.3 7.9 35 8.7 SE 13 17 7 9 1015.4 1015.2 0.0
04/11:00pm 25.1 21.5 6.9 31 9.5 SE 15 20 8 11 1015.5 1015.3 0.0
04/10:30pm 25.1 22.1 7.5 32 9.3 SE 13 17 7 9 1015.4 1015.2 0.0
04/10:00pm 25.6 21.8 7.7 32 9.5 SE 17 20 9 11 1015.4 1015.2 0.0
04/09:30pm 26.0 22.7 8.1 32 9.6 SE 15 19 8 10 1015.2 1015.0 0.0
04/09:00pm 26.3 23.1 8.6 32 9.6 SE 15 19 8 10 1015.1 1014.9 0.0
04/08:30pm 26.7 24.5 9.2 33 9.6 SE 11 15 6 8 1014.7 1014.5 0.0
04/08:00pm 27.5 25.1 8.6 30 10.3 SE 11 15 6 8 1014.3 1014.1 0.0
04/07:30pm 28.3 25.5 8.6 29 10.8 ESE 13 17 7 9 1013.9 1013.7 0.0
04/07:00pm 29.0 26.8 9.2 29 11.0 SE 11 13 6 7 1013.6 1013.4 0.0
04/06:30pm 29.9 27.0 9.6 28 11.4 SE 15 19 8 10 1013.2 1013.0 0.0
04/06:00pm 30.9 27.5 9.1 25 12.2 ESE 17 24 9 13 1012.9 1012.7 0.0
04/05:30pm 31.4 27.6 8.9 24 12.6 ESE 19 28 10 15 1012.7 1012.5 0.0
04/05:00pm 31.5 27.1 9.1 25 12.6 ESE 22 33 12 18 1012.6 1012.4 0.0
04/04:30pm 31.6 26.8 8.7 24 12.8 ESE 24 33 13 18 1012.6 1012.4 0.0
04/04:00pm 31.5 26.0 9.3 25 12.5 E 28 43 15 23 1012.7 1012.5 0.0
04/03:30pm 31.8 27.2 9.8 25 12.5 ESE 24 37 13 20 1013.0 1012.8 0.0
04/03:00pm 31.2 26.3 9.9 26 12.1 ESE 26 41 14 22 1013.2 1013.0 0.0
04/02:30pm 31.1 25.5 10.3 27 11.9 E 30 39 16 21 1013.5 1013.3 0.0
04/02:20pm 31.2 26.1 10.7 28 11.8 ESE 28 46 15 25 1013.7 1013.5 0.0
04/02:00pm 30.9 24.6 11.0 29 11.5 ESE 35 48 19 26 1013.9 1013.7 0.0
04/01:30pm 31.2 25.4 11.4 29 11.5 ESE 33 44 18 24 1014.4 1014.2 0.0
04/01:00pm 30.5 25.8 12.1 32 10.8 E 28 52 15 28 1014.9 1014.7 0.0
04/12:55pm 31.1 26.2 12.5 32 11.0 ESE 30 52 16 28 1014.9 1014.7 0.0
04/12:30pm 30.2 24.7 12.3 33 10.5 ESE 33 50 18 27 1015.4 1015.2 0.0
04/12:00pm 30.1 23.1 12.4 33 10.4 ESE 41 54 22 29 1015.9 1015.7 0.0
04/11:30am 29.3 22.7 12.6 35 9.8 E 39 56 21 30 1016.3 1016.1 0.0
04/11:06am 29.1 23.7 12.8 36 9.6 ESE 33 54 18 29 1016.6 1016.4 0.0
04/11:00am 28.9 23.8 13.2 38 9.3 ESE 32 39 17 21 1016.6 1016.4 0.0
04/10:33am 28.7 23.2 14.7 42 8.5 ESE 37 56 20 30 1016.6 1016.4 0.0
04/10:30am 28.8 22.4 14.4 41 8.7 E 41 56 22 30 1016.6 1016.4 0.0
04/10:17am 28.4 22.8 14.5 42 8.4 ESE 37 56 20 30 1016.7 1016.5 0.0
04/10:00am 28.0 23.1 14.3 43 8.2 ESE 33 43 18 23 1016.7 1016.5 0.0
04/09:30am 27.0 23.1 14.5 46 7.5 ESE 28 44 15 24 1016.7 1016.5 0.0
04/09:00am 26.3 23.7 14.8 49 6.9 ESE 22 32 12 17 1016.7 1016.5 0.0
04/08:30am 25.5 23.6 15.2 53 6.2 ESE 19 26 10 14 1016.3 1016.1 0.0
04/08:00am 24.5 22.7 15.6 57 5.4 E 19 24 10 13 1015.9 1015.7 0.0
04/07:30am 23.8 22.5 15.7 60 4.9 E 17 22 9 12 1015.6 1015.4 0.0
04/07:00am 23.7 22.8 15.9 61 4.7 E 15 20 8 11 1015.4 1015.2 0.0
04/06:30am 23.7 22.9 16.1 62 4.6 ESE 15 20 8 11 1015.3 1015.1 0.0
04/06:00am 23.3 23.3 17.1 68 3.8 ESE 13 17 7 9 1015.3 1015.1 0.0
04/05:30am 23.3 23.7 18.2 73 3.2 ESE 13 15 7 8 1015.2 1015.0 0.0
04/05:00am 23.0 24.6 19.2 79 2.4 ESE 9 11 5 6 1014.9 1014.7 0.0
04/04:30am 23.0 24.8 19.6 81 2.2 ESE 9 11 5 6 1014.8 1014.6 0.0
04/04:00am 23.3 25.3 20.0 82 2.1 SE 9 11 5 6 1014.8 1014.6 0.0
04/03:30am 23.6 25.6 20.0 80 2.3 SE 9 11 5 6 1015.0 1014.8 0.0
04/03:00am 23.7 25.8 20.1 80 2.3 SSE 9 11 5 6 1015.1 1014.9 0.0
04/02:30am 23.9 26.1 20.4 81 2.3 SSE 9 11 5 6 1015.4 1015.2 0.0
04/02:00am 24.3 26.9 20.1 77 2.7 SE 6 7 3 4 1015.8 1015.6 0.0
04/01:30am 24.6 27.0 20.1 76 2.9 SSE 7 9 4 5 1015.8 1015.6 0.0
04/01:00am 24.7 27.5 20.4 77 2.8 SE 6 7 3 4 1015.9 1015.7 0.0
04/12:30am 24.9 27.5 20.5 76 2.9 SSE 7 9 4 5 1015.9 1015.7 0.0
04/12:00am 24.9 27.7 20.8 78 2.7 SSE 7 9 4 5 1016.0 1015.8 0.0
 
Date/Time
CST
Temp
°C
App
Temp
°C
Dew
Point
°C
Rel
Hum
%
Delta-T
°C
Wind Press
QNH
hPa
Press
MSL
hPa
Rain since
9am
mm
Dir  Spd
km/h
Gust
km/h
Spd
kts
Gust
kts
03/11:30pm 25.2 28.0 20.5 75 3.1 SSE 6 7 3 4 1015.7 1015.5 0.0
03/11:00pm 25.7 28.7 20.8 74 3.2 S 6 9 3 5 1015.6 1015.4 0.0
03/10:30pm 26.5 29.4 20.6 70 3.9 SSE 6 7 3 4 1015.6 1015.4 0.0
03/10:00pm 26.2 28.3 20.2 69 3.9 S 9 15 5 8 1015.6 1015.4 0.0
03/09:30pm 25.7 28.5 20.5 73 3.4 NE 6 11 3 6 1015.3 1015.1 0.0
03/09:00pm 26.1 27.7 20.8 72 3.5 NE 13 17 7 9 1014.7 1014.5 0.0
03/08:30pm 26.4 28.6 20.5 70 3.9 NNE 9 13 5 7 1014.5 1014.3 0.0
03/08:00pm 26.7 28.5 20.3 68 4.2 NNE 11 15 6 8 1014.3 1014.1 0.0
03/07:30pm 27.2 28.8 20.0 64 4.7 NNE 11 13 6 7 1013.9 1013.7 0.0
03/07:00pm 27.9 29.3 19.6 60 5.4 NNE 11 15 6 8 1013.7 1013.5 0.0
03/06:30pm 28.7 30.4 19.3 56 6.1 NNE 9 13 5 7 1013.3 1013.1 0.0
03/06:00pm 28.9 28.8 18.8 54 6.5 NNE 17 20 9 11 1013.1 1012.9 0.0
03/05:30pm 29.0 29.1 19.1 55 6.4 NE 17 20 9 11 1012.8 1012.6 0.0
03/05:00pm 29.6 29.1 18.6 51 7.1 NNE 19 26 10 14 1012.7 1012.5 0.0
03/04:30pm 30.8 29.4 17.1 43 8.7 NNE 20 26 11 14 1012.6 1012.4 0.0
03/04:00pm 31.3 29.9 16.9 42 9.1 NNE 20 28 11 15 1012.5 1012.3 0.0
03/03:30pm 32.8 31.5 15.9 36 10.6 NE 17 28 9 15 1012.4 1012.2 0.0
03/03:00pm 32.3 31.0 15.8 37 10.3 E 17 24 9 13 1012.8 1012.6 0.0
03/02:30pm 33.1 31.1 15.0 33 11.2 ENE 19 26 10 14 1013.0 1012.8 0.0
03/02:00pm 32.3 29.6 14.7 34 10.8 ENE 22 35 12 19 1013.3 1013.1 0.0
03/01:30pm 32.1 29.7 14.4 34 10.8 ENE 20 33 11 18 1013.7 1013.5 0.0
03/01:00pm 31.7 29.5 14.8 36 10.4 E 20 32 11 17 1014.1 1013.9 0.0
03/12:30pm 30.4 27.7 14.7 38 9.6 E 22 30 12 16 1014.4 1014.2 0.0
03/12:00pm 30.7 28.8 15.3 39 9.5 E 19 30 10 16 1014.7 1014.5 0.0
03/11:30am 29.9 28.1 15.4 41 8.9 E 19 26 10 14 1015.2 1015.0 0.0
03/11:00am 28.8 26.7 15.2 43 8.3 E 20 28 11 15 1015.6 1015.4 0.0
03/10:30am 28.3 26.2 15.2 44 8.0 E 20 26 11 14 1015.8 1015.6 0.0
03/10:00am 27.3 24.8 16.1 50 6.9 ESE 24 32 13 17 1016.0 1015.8 0.0
03/09:30am 26.6 25.6 16.6 54 6.2 ESE 17 22 9 12 1016.0 1015.8 0.0
03/09:00am 25.0 25.6 18.5 67 4.1 ESE 13 20 7 11 1015.9 1015.7 0.0
03/08:30am 23.2 24.7 19.8 81 2.2 SE 11 17 6 9 1015.6 1015.4 0.0
03/08:00am 22.2 24.9 20.2 88 1.3 ESE 6 9 3 5 1015.3 1015.1 0.0
03/07:30am 21.1 23.7 20.0 93 0.7 SE 6 7 3 4 1014.9 1014.7 0.0
03/07:00am 21.0 23.4 19.7 92 0.8 SE 6 6 3 3 1014.6 1014.4 0.0
03/06:30am 21.2 23.6 19.6 90 1.0 SE 6 6 3 3 1014.3 1014.1 0.0
03/06:00am 21.5 23.8 19.8 90 1.1 SE 7 9 4 5 1014.1 1013.9 0.0
03/05:30am 21.6 23.6 19.9 90 1.1 SE 9 11 5 6 1014.0 1013.8 0.0
03/05:00am 21.7 24.1 20.0 90 1.1 SE 7 9 4 5 1014.0 1013.8 0.0
03/04:30am 22.0 24.3 19.8 87 1.4 SE 7 7 4 4 1013.8 1013.6 0.0
03/04:00am 22.5 24.5 20.0 86 1.6 SE 9 9 5 5 1013.8 1013.6 0.0
03/03:30am 22.6 25.0 20.0 85 1.7 SE 7 9 4 5 1014.0 1013.8 0.0
03/03:00am 22.6 25.2 20.1 86 1.6 SE 6 7 3 4 1014.3 1014.1 0.0
03/02:30am 21.9 24.4 19.9 88 1.3 ESE 6 6 3 3 1014.5 1014.3 0.0
03/02:00am 22.2 25.1 19.9 87 1.5 ESE 4 6 2 3 1014.6 1014.4 0.0
03/01:30am 22.7 25.7 20.1 85 1.7 E 4 6 2 3 1014.5 1014.3 0.0
03/01:00am 23.3 25.9 20.0 82 2.1 E 6 6 3 3 1014.6 1014.4 0.0
03/12:30am 23.8 26.3 19.9 79 2.5 E 6 7 3 4 1014.7 1014.5 0.0
03/12:00am 23.9 26.4 19.9 78 2.6 E 6 7 3 4 1014.7 1014.5 0.0
 
Date/Time
CST
Temp
°C
App
Temp
°C
Dew
Point
°C
Rel
Hum
%
Delta-T
°C
Wind Press
QNH
hPa
Press
MSL
hPa
Rain since
9am
mm
Dir  Spd
km/h
Gust
km/h
Spd
kts
Gust
kts
02/11:30pm 23.7 25.6 19.7 78 2.6 ENE 9 11 5 6 1014.6 1014.4 0.0
02/11:00pm 23.4 25.7 19.8 80 2.3 ENE 7 11 4 6 1014.5 1014.3 0.0
02/10:30pm 22.7 25.9 20.4 87 1.5 S 4 6 2 3 1014.3 1014.1 0.0
02/10:00pm 23.2 26.3 20.3 84 1.9 S 4 7 2 4 1013.9 1013.7 0.0
02/09:30pm 23.6 26.7 20.2 81 2.2 S 4 6 2 3 1013.5 1013.3 0.0
02/09:00pm 24.7 27.9 20.4 77 2.8 SW 4 6 2 3 1013.1 1012.9 0.0
02/08:30pm 25.4 28.1 20.2 73 3.4 WSW 6 6 3 3 1012.7 1012.5 0.0
02/08:00pm 25.2 28.6 20.1 73 3.3 W 2 4 1 2 1012.4 1012.2 0.0
02/07:30pm 25.9 28.9 20.1 70 3.8 WNW 4 6 2 3 1012.1 1011.9 0.0
02/07:00pm 25.9 28.3 20.1 70 3.8 N 7 11 4 6 1011.5 1011.3 0.0
02/06:30pm 26.6 27.7 19.7 66 4.5 N 13 26 7 14 1011.2 1011.0 0.0
02/06:00pm 27.5 27.5 19.0 59 5.5 N 17 22 9 12 1010.8 1010.6 0.0
02/05:30pm 28.3 28.6 18.7 56 6.2 N 15 19 8 10 1010.4 1010.2 0.0
02/05:00pm 28.7 28.6 17.9 52 6.9 N 15 19 8 10 1010.2 1010.0 0.0
02/04:30pm 28.8 28.6 18.4 53 6.7 NNW 17 22 9 12 1010.1 1009.9 0.0
02/04:00pm 29.6 29.1 17.9 49 7.5 NNW 17 20 9 11 1009.9 1009.7 0.0
02/03:30pm 29.9 29.6 18.2 49 7.5 NNW 17 22 9 12 1010.0 1009.8 0.0
02/03:00pm 29.4 29.4 18.9 53 6.8 NW 17 22 9 12 1010.1 1009.9 0.0
02/02:30pm 30.2 30.5 19.7 53 6.9 NW 17 22 9 12 1010.4 1010.2 0.0
02/02:00pm 31.5 31.4 13.4 33 10.9 ENE 6 19 3 10 1011.1 1010.9 0.0
02/01:30pm 30.6 28.3 13.0 34 10.5 ESE 17 26 9 14 1011.6 1011.4 0.0
02/01:00pm 30.5 29.4 14.4 37 9.8 E 13 28 7 15 1012.1 1011.9 0.0
02/12:30pm 29.2 27.9 15.8 44 8.3 ENE 17 24 9 13 1012.7 1012.5 0.0
02/12:00pm 28.9 27.9 16.6 47 7.7 E 17 24 9 13 1013.1 1012.9 0.0
02/11:30am 28.5 27.7 17.2 50 7.1 E 17 24 9 13 1013.6 1013.4 0.0

Latest Capital City Observations: Canberra | Sydney | Melbourne | Brisbane | Adelaide | Perth | Hobart | Darwin

Other formats

Comma delimited format used in spreadsheet applications
http://www.bom.gov.au/fwo/IDD60901/IDD60901.94120.axf

JavaScript Object Notation format (JSON) in row-major order
http://www.bom.gov.au/fwo/IDD60901/IDD60901.94120.json

Data quality

Most of these data are generated automatically and are frequently updated. Quality checks on data are not normally performed. It is possible for incorrect values to appear. Refer to information at About Latest Weather Observations and please check the disclaimer before using these data.